Time;durP1;ratioP1;P1;durP2;ratioP2;P2;SDS_P1;SDS_P2;PMS_P1;PMS_P2;Temp;Humidity;BMP_temperature;BMP_pressure;BME280_temperature;BME280_humidity;BME280_pressure;Samples;Min_cycle;Max_cycle;Signal;HPM_P1;HPM_P2
2021/09/22 00:01:13;;;;;;;8.18;1.17;;;28.10;99.90;;;;;;4191119;28;20033;-68
2021/09/22 00:03:18;;;;;;;3.65;1.10;;;28.20;99.90;;;;;;4193907;28;20138;-70
2021/09/22 00:05:22;;;;;;;1.77;0.80;;;28.30;99.90;;;;;;4193534;28;20071;-68
2021/09/22 00:07:27;;;;;;;2.10;0.70;;;28.30;99.90;;;;;;4194118;28;20041;-69
2021/09/22 00:09:32;;;;;;;2.25;0.90;;;28.30;99.90;;;;;;4192530;28;20445;-69
2021/09/22 00:11:36;;;;;;;1.95;1.00;;;28.30;99.90;;;;;;4177771;28;20090;-69
2021/09/22 00:13:41;;;;;;;1.40;0.65;;;28.30;99.90;;;;;;4193104;28;20052;-69
2021/09/22 00:15:45;;;;;;;2.45;0.82;;;28.20;99.90;;;;;;4180267;28;20105;-68
2021/09/22 00:17:50;;;;;;;2.83;1.30;;;28.20;99.90;;;;;;4192694;28;20040;-68
2021/09/22 00:19:54;;;;;;;2.17;1.10;;;28.20;99.90;;;;;;4191244;28;20047;-68
2021/09/22 00:21:59;;;;;;;1.70;0.80;;;28.20;99.90;;;;;;4193874;28;20044;-70
2021/09/22 00:24:04;;;;;;;2.20;1.20;;;28.30;99.90;;;;;;4192645;28;20642;-69
2021/09/22 00:26:08;;;;;;;3.22;1.80;;;28.20;99.90;;;;;;4192088;28;20052;-69
2021/09/22 00:28:13;;;;;;;3.25;2.28;;;28.20;99.90;;;;;;4194266;28;20036;-69
2021/09/22 00:30:18;;;;;;;5.45;3.03;;;28.20;99.90;;;;;;4188382;28;20053;-68
2021/09/22 00:32:22;;;;;;;8.50;4.03;;;28.20;99.90;;;;;;4192512;28;20476;-70
2021/09/22 00:34:28;;;;;;;5.63;3.28;;;28.20;99.90;;;;;;4192748;28;20570;-69
2021/09/22 00:36:34;;;;;;;8.13;3.80;;;28.20;99.90;;;;;;4194397;28;20044;-69
2021/09/22 00:38:38;;;;;;;5.57;3.40;;;28.20;99.90;;;;;;4193612;28;20097;-70
2021/09/22 00:40:43;;;;;;;5.85;3.25;;;28.20;99.90;;;;;;4176661;28;20458;-69
2021/09/22 00:42:48;;;;;;;3.53;2.47;;;28.20;99.90;;;;;;4189681;28;20075;-70
2021/09/22 00:44:58;;;;;;;4.35;2.00;;;28.20;99.90;;;;;;4194727;28;20048;-69
2021/09/22 00:47:02;;;;;;;3.03;1.63;;;28.20;99.90;;;;;;4194851;28;20145;-70
2021/09/22 00:49:07;;;;;;;2.60;1.40;;;28.20;99.90;;;;;;4191303;28;20052;-69
2021/09/22 00:51:18;;;;;;;6.18;1.90;;;28.20;99.90;;;;;;4162772;28;20420;-69
2021/09/22 00:53:22;;;;;;;4.30;1.80;;;28.10;99.90;;;;;;4192781;28;20101;-70
2021/09/22 00:55:30;;;;;;;2.33;1.90;;;28.20;99.90;;;;;;4193341;28;20552;-69
2021/09/22 00:57:36;;;;;;;2.90;1.55;;;28.20;99.90;;;;;;4192361;28;20319;-69
2021/09/22 00:59:41;;;;;;;3.63;1.60;;;28.30;99.90;;;;;;4179045;28;20106;-70
2021/09/22 01:01:49;;;;;;;1.63;1.30;;;28.30;99.90;;;;;;4190545;28;20090;-70
2021/09/22 01:03:54;;;;;;;6.03;1.73;;;28.30;99.90;;;;;;4195686;28;20040;-70
2021/09/22 01:06:00;;;;;;;4.63;1.80;;;28.30;99.90;;;;;;4195140;28;20044;-69
2021/09/22 01:08:10;;;;;;;3.55;1.50;;;28.30;99.90;;;;;;4192786;28;20060;-69
2021/09/22 01:10:15;;;;;;;2.55;1.50;;;28.30;99.90;;;;;;4194987;28;20127;-69
2021/09/22 01:12:20;;;;;;;3.70;1.58;;;28.20;99.90;;;;;;4192630;28;20044;-68
2021/09/22 01:14:26;;;;;;;4.40;1.45;;;28.30;99.90;;;;;;4192327;28;20060;-69
2021/09/22 01:16:31;;;;;;;1.67;1.40;;;28.30;99.90;;;;;;4195054;28;20394;-70
2021/09/22 01:18:36;;;;;;;2.15;1.58;;;28.40;99.90;;;;;;4195435;28;20043;-70
2021/09/22 01:20:42;;;;;;;1.55;1.40;;;28.40;99.90;;;;;;4194295;28;20087;-70
2021/09/22 01:22:47;;;;;;;1.98;1.15;;;28.50;99.90;;;;;;4192108;28;20491;-70
2021/09/22 01:24:52;;;;;;;1.58;1.20;;;28.50;99.90;;;;;;4194155;28;20037;-69
2021/09/22 01:26:57;;;;;;;3.88;1.80;;;28.60;99.90;;;;;;4193542;28;20040;-69
2021/09/22 01:29:02;;;;;;;3.15;1.75;;;28.70;99.90;;;;;;4177910;28;20044;-69
2021/09/22 01:31:06;;;;;;;2.63;1.98;;;28.70;99.90;;;;;;4174699;28;20589;-69
2021/09/22 01:33:14;;;;;;;5.70;1.70;;;28.60;99.90;;;;;;4188837;28;20056;-69
2021/09/22 01:35:35;;;;;;;4.55;1.83;;;28.60;99.90;;;;;;4179606;28;20132;-68
2021/09/22 01:37:48;;;;;;;2.20;1.50;;;28.60;99.90;;;;;;4191435;28;20414;-68
2021/09/22 01:40:12;;;;;;;2.53;1.50;;;28.70;99.90;;;;;;4191983;28;20028;-69
2021/09/22 01:42:18;;;;;;;2.53;1.40;;;28.70;99.90;;;;;;4188585;28;20052;-69
2021/09/22 01:44:26;;;;;;;1.95;1.30;;;28.70;99.90;;;;;;4196308;28;20101;-70
2021/09/22 01:46:44;;;;;;;1.65;1.30;;;28.80;99.90;;;;;;4183025;28;20045;-70
2021/09/22 01:48:49;;;;;;;2.20;1.38;;;28.90;99.90;;;;;;4195055;28;20047;-70
2021/09/22 01:50:55;;;;;;;2.40;1.50;;;29.00;99.90;;;;;;4180307;28;20515;-70
2021/09/22 01:53:00;;;;;;;1.65;1.55;;;29.00;99.90;;;;;;4177621;28;20099;-69
2021/09/22 01:55:05;;;;;;;4.20;1.60;;;29.00;99.90;;;;;;4196760;28;20049;-70
2021/09/22 01:57:10;;;;;;;2.25;1.40;;;29.00;99.90;;;;;;4194633;28;20064;-69
2021/09/22 01:59:16;;;;;;;2.95;1.50;;;29.00;99.90;;;;;;4179586;28;20143;-69
2021/09/22 02:01:41;;;;;;;1.83;1.48;;;29.10;99.90;;;;;;4195929;28;20043;-69
2021/09/22 02:04:00;;;;;;;1.77;1.48;;;29.20;99.90;;;;;;4193847;28;20159;-69
2021/09/22 02:06:15;;;;;;;1.85;1.45;;;29.30;99.90;;;;;;4196530;28;20037;-70
2021/09/22 02:08:20;;;;;;;3.25;1.88;;;29.40;99.90;;;;;;4196347;28;20396;-69
2021/09/22 02:10:28;;;;;;;2.60;2.00;;;29.30;99.90;;;;;;4195351;28;20413;-69
2021/09/22 02:12:33;;;;;;;6.75;2.10;;;29.40;99.90;;;;;;4195738;28;20145;-69
2021/09/22 02:14:40;;;;;;;5.05;2.50;;;29.50;99.90;;;;;;4195074;28;20502;-70
2021/09/22 02:16:47;;;;;;;5.75;3.35;;;29.60;99.90;;;;;;4194984;28;20502;-70
2021/09/22 02:18:55;;;;;;;4.38;2.42;;;29.70;99.90;;;;;;4180468;28;20033;-70
2021/09/22 02:21:01;;;;;;;2.80;1.77;;;29.70;99.90;;;;;;4180560;28;20124;-73
2021/09/22 02:23:07;;;;;;;3.90;2.10;;;29.70;99.90;;;;;;4177540;28;20045;-73
2021/09/22 02:25:12;;;;;;;2.67;1.85;;;29.70;99.90;;;;;;4195931;28;20040;-71
2021/09/22 02:27:20;;;;;;;3.33;2.33;;;29.70;99.90;;;;;;4187214;28;20056;-72
2021/09/22 02:29:25;;;;;;;3.15;1.88;;;29.70;99.90;;;;;;4189881;28;20041;-72
2021/09/22 02:31:30;;;;;;;2.60;1.80;;;29.80;99.90;;;;;;4197334;28;20109;-72
2021/09/22 02:33:36;;;;;;;3.95;1.55;;;29.80;99.90;;;;;;4225815;28;20044;-70
2021/09/22 02:35:41;;;;;;;2.50;1.58;;;29.90;99.90;;;;;;4195865;28;20527;-72
2021/09/22 02:37:57;;;;;;;1.85;1.17;;;30.00;99.90;;;;;;4210515;28;20048;-72
2021/09/22 02:40:17;;;;;;;1.90;1.08;;;30.10;99.90;;;;;;4195322;28;20054;-71
2021/09/22 02:42:25;;;;;;;4.53;1.50;;;30.20;99.90;;;;;;4177266;28;20053;-72
2021/09/22 02:44:30;;;;;;;3.38;1.40;;;30.20;99.90;;;;;;4194441;28;20070;-71
2021/09/22 02:46:35;;;;;;;2.90;1.35;;;30.20;99.90;;;;;;4195146;28;20513;-71
2021/09/22 02:48:39;;;;;;;1.70;1.33;;;30.20;99.90;;;;;;4192659;28;20051;-70
2021/09/22 02:50:44;;;;;;;1.75;1.35;;;30.20;99.90;;;;;;4193653;28;20510;-71
2021/09/22 02:52:49;;;;;;;1.70;1.30;;;30.20;99.90;;;;;;4176371;28;20487;-71
2021/09/22 02:54:54;;;;;;;2.97;1.38;;;30.30;99.90;;;;;;4161923;28;20099;-71
2021/09/22 02:57:00;;;;;;;1.45;1.30;;;30.30;99.90;;;;;;4194617;28;20393;-71
2021/09/22 02:59:05;;;;;;;1.90;1.45;;;30.20;99.90;;;;;;4193072;28;20043;-71
2021/09/22 03:01:10;;;;;;;2.47;1.55;;;30.20;99.90;;;;;;4194385;28;20044;-71
2021/09/22 03:03:17;;;;;;;2.85;1.60;;;30.10;99.90;;;;;;4194863;28;20041;-71
2021/09/22 03:05:22;;;;;;;1.70;1.25;;;30.20;99.90;;;;;;4194496;28;20056;-71
2021/09/22 03:07:28;;;;;;;1.63;1.50;;;30.20;99.90;;;;;;4175311;28;20057;-70
2021/09/22 03:09:32;;;;;;;7.80;1.77;;;30.20;99.90;;;;;;4163081;28;20045;-70
2021/09/22 03:11:37;;;;;;;2.05;1.38;;;30.20;99.90;;;;;;4192805;28;20056;-71
2021/09/22 03:13:41;;;;;;;3.97;1.42;;;30.20;99.90;;;;;;4208673;28;20044;-72
2021/09/22 03:15:46;;;;;;;3.53;1.30;;;30.30;99.90;;;;;;4195896;28;20468;-69
2021/09/22 03:17:51;;;;;;;1.65;1.10;;;30.10;99.90;;;;;;4194685;28;20137;-69
2021/09/22 03:19:55;;;;;;;2.45;1.55;;;30.10;99.90;;;;;;4178877;28;20415;-69
2021/09/22 03:22:01;;;;;;;3.38;1.30;;;30.10;99.90;;;;;;4193753;28;20040;-69
2021/09/22 03:24:25;;;;;;;1.90;1.45;;;30.10;99.90;;;;;;4193883;28;20047;-67
2021/09/22 03:26:30;;;;;;;1.63;1.23;;;30.20;99.90;;;;;;4195798;28;20052;-69
2021/09/22 03:28:34;;;;;;;2.60;1.40;;;30.10;99.90;;;;;;4205751;28;20047;-68
2021/09/22 03:30:40;;;;;;;1.52;1.40;;;30.10;99.90;;;;;;4210729;28;20131;-69
2021/09/22 03:32:49;;;;;;;1.55;1.30;;;30.10;99.90;;;;;;4193904;28;20052;-68
2021/09/22 03:34:54;;;;;;;2.22;1.30;;;30.00;99.90;;;;;;4192286;28;20052;-69
2021/09/22 03:36:58;;;;;;;4.05;1.50;;;30.00;99.90;;;;;;4194625;28;20446;-69
2021/09/22 03:39:03;;;;;;;2.83;1.45;;;30.10;99.90;;;;;;4177786;28;20047;-69
2021/09/22 03:41:08;;;;;;;1.98;1.17;;;30.20;99.90;;;;;;4194058;28;20083;-69
2021/09/22 03:43:13;;;;;;;1.77;1.20;;;30.30;99.90;;;;;;4194906;28;20091;-69
2021/09/22 03:45:18;;;;;;;2.05;1.50;;;30.40;99.90;;;;;;4194673;28;20040;-69
2021/09/22 03:47:22;;;;;;;1.67;1.25;;;30.50;99.90;;;;;;4194503;28;20388;-69
2021/09/22 03:49:27;;;;;;;1.73;1.27;;;30.60;99.90;;;;;;4177447;28;20052;-68
2021/09/22 03:51:40;;;;;;;3.60;1.23;;;30.70;99.90;;;;;;4186586;28;20052;-68
2021/09/22 03:53:45;;;;;;;1.77;1.20;;;30.80;99.90;;;;;;4195735;28;20089;-68
2021/09/22 03:55:49;;;;;;;2.28;1.13;;;30.80;99.90;;;;;;4194300;28;20415;-68
2021/09/22 03:57:56;;;;;;;2.13;1.40;;;30.90;99.90;;;;;;4191888;28;20115;-69
2021/09/22 04:00:01;;;;;;;2.08;1.20;;;31.00;99.90;;;;;;4192998;28;20039;-68
2021/09/22 04:02:15;;;;;;;1.80;1.30;;;31.00;99.90;;;;;;4176582;28;20033;-68
2021/09/22 04:04:20;;;;;;;1.60;1.17;;;31.10;99.90;;;;;;4188953;28;20076;-68
2021/09/22 04:06:25;;;;;;;1.25;1.15;;;31.10;99.90;;;;;;4177845;28;20037;-68
2021/09/22 04:08:30;;;;;;;1.10;1.00;;;31.10;99.90;;;;;;4194000;28;20082;-68
2021/09/22 04:10:34;;;;;;;2.25;1.38;;;31.20;99.90;;;;;;4172958;28;20119;-69
2021/09/22 04:12:39;;;;;;;2.53;1.30;;;31.20;99.90;;;;;;4190214;28;20040;-69
2021/09/22 04:14:45;;;;;;;1.58;1.00;;;31.20;99.90;;;;;;4194805;28;20419;-69
2021/09/22 04:16:49;;;;;;;0.90;0.90;;;31.30;99.90;;;;;;4176930;28;20876;-68
2021/09/22 04:18:54;;;;;;;3.78;1.30;;;31.30;99.90;;;;;;4168859;28;20041;-68
2021/09/22 04:20:58;;;;;;;4.40;1.30;;;31.30;99.90;;;;;;4185699;28;20106;-68
2021/09/22 04:23:03;;;;;;;1.38;1.10;;;31.30;99.90;;;;;;4165092;28;20044;-68
2021/09/22 04:25:09;;;;;;;1.80;1.33;;;31.30;99.90;;;;;;4185127;28;20037;-67
2021/09/22 04:27:26;;;;;;;1.63;1.40;;;31.20;99.90;;;;;;4183122;28;20076;-66
2021/09/22 04:29:38;;;;;;;1.57;1.20;;;31.20;99.90;;;;;;4186551;28;20524;-68
2021/09/22 04:31:55;;;;;;;1.40;1.27;;;31.20;99.90;;;;;;4188305;28;20048;-67
2021/09/22 04:34:12;;;;;;;2.75;1.60;;;31.30;99.90;;;;;;4186971;28;20048;-68
2021/09/22 04:36:28;;;;;;;2.20;1.20;;;31.40;99.90;;;;;;4186352;28;20628;-69
2021/09/22 04:38:45;;;;;;;2.72;1.38;;;31.40;99.90;;;;;;4185207;28;20057;-71
2021/09/22 04:41:02;;;;;;;1.85;1.10;;;31.40;99.90;;;;;;4185990;28;20044;-71
2021/09/22 04:43:19;;;;;;;2.60;1.27;;;31.40;99.90;;;;;;4173960;28;20064;-71
2021/09/22 04:45:36;;;;;;;1.60;1.20;;;31.50;99.90;;;;;;4179405;28;20083;-71
2021/09/22 04:47:53;;;;;;;1.80;1.38;;;31.50;99.90;;;;;;4159259;28;20077;-71
2021/09/22 04:50:10;;;;;;;1.42;1.00;;;31.60;99.90;;;;;;4188219;28;20048;-71
2021/09/22 04:52:27;;;;;;;1.58;1.33;;;31.50;99.90;;;;;;4169220;28;20063;-71
2021/09/22 04:54:44;;;;;;;1.65;1.33;;;31.60;99.90;;;;;;4187156;28;20139;-70
2021/09/22 04:57:01;;;;;;;1.77;1.08;;;31.60;99.90;;;;;;4187382;28;20051;-71
2021/09/22 04:59:18;;;;;;;2.60;1.27;;;31.70;99.90;;;;;;4190243;28;20131;-71
2021/09/22 05:01:35;;;;;;;2.70;1.27;;;31.80;99.90;;;;;;4182652;28;20471;-71
2021/09/22 05:03:52;;;;;;;2.40;1.30;;;31.70;99.90;;;;;;4180807;28;20048;-71
2021/09/22 05:06:09;;;;;;;1.30;1.20;;;31.90;99.90;;;;;;4187395;28;20045;-71
2021/09/22 05:08:26;;;;;;;2.28;1.40;;;31.70;99.90;;;;;;4186489;28;20048;-71
2021/09/22 05:10:43;;;;;;;2.88;1.40;;;31.70;99.90;;;;;;4187214;28;20056;-71
2021/09/22 05:13:00;;;;;;;3.08;1.30;;;31.70;99.90;;;;;;4171315;28;20099;-72
2021/09/22 05:15:16;;;;;;;1.20;1.10;;;31.80;99.90;;;;;;4187271;28;20444;-72
2021/09/22 05:17:33;;;;;;;1.20;1.10;;;32.10;99.90;;;;;;4177600;28;20041;-72
2021/09/22 05:19:50;;;;;;;1.27;1.15;;;32.30;99.90;;;;;;4189304;28;20041;-72
2021/09/22 05:22:07;;;;;;;1.40;1.23;;;32.30;99.90;;;;;;4184667;28;20040;-72
2021/09/22 05:24:24;;;;;;;1.30;1.05;;;32.30;99.90;;;;;;4192930;28;20131;-71
2021/09/22 05:26:40;;;;;;;3.75;1.20;;;32.30;99.90;;;;;;4186521;28;20071;-71
2021/09/22 05:28:57;;;;;;;1.48;1.13;;;32.30;99.90;;;;;;4185300;28;20052;-72
2021/09/22 05:31:14;;;;;;;4.78;1.50;;;32.30;99.90;;;;;;4190792;28;20074;-72
2021/09/22 05:33:31;;;;;;;1.67;1.25;;;32.10;99.90;;;;;;4176948;28;20083;-72
2021/09/22 05:35:48;;;;;;;2.72;1.27;;;32.10;99.90;;;;;;4176291;28;20106;-71
2021/09/22 05:38:05;;;;;;;1.40;1.10;;;32.10;99.90;;;;;;4187133;28;20040;-71
2021/09/22 05:40:24;;;;;;;2.33;1.23;;;32.20;99.90;;;;;;4184581;28;20388;-71
2021/09/22 05:42:48;;;;;;;2.38;1.27;;;32.20;99.90;;;;;;4189515;28;20132;-71
2021/09/22 05:45:05;;;;;;;3.15;1.10;;;32.30;99.90;;;;;;4191885;28;20052;-71
2021/09/22 05:47:22;;;;;;;1.08;0.95;;;32.20;99.90;;;;;;4192725;28;20045;-71
2021/09/22 05:49:39;;;;;;;2.95;1.30;;;32.30;99.90;;;;;;4191033;28;20456;-71
2021/09/22 05:51:56;;;;;;;1.77;1.33;;;32.20;99.90;;;;;;4181328;28;20105;-71
2021/09/22 05:54:13;;;;;;;2.55;1.60;;;32.10;99.90;;;;;;4187235;28;20044;-73
2021/09/22 05:56:29;;;;;;;2.22;1.58;;;32.10;99.90;;;;;;4189894;28;20132;-71
2021/09/22 05:58:46;;;;;;;1.63;1.30;;;32.10;99.90;;;;;;4189372;28;20068;-70
2021/09/22 06:01:03;;;;;;;2.08;1.60;;;32.20;99.90;;;;;;4192089;28;20497;-71
2021/09/22 06:03:20;;;;;;;2.53;1.40;;;32.30;99.90;;;;;;4190334;28;20078;-71
2021/09/22 06:05:39;;;;;;;1.98;1.40;;;32.40;99.90;;;;;;4191664;28;20037;-71
2021/09/22 06:08:01;;;;;;;1.58;1.30;;;32.40;99.90;;;;;;4185209;28;20063;-72
2021/09/22 06:10:17;;;;;;;1.83;1.30;;;32.40;99.90;;;;;;4183334;28;20565;-71
2021/09/22 06:12:36;;;;;;;1.30;1.10;;;32.50;99.90;;;;;;4189138;28;20076;-72
2021/09/22 06:14:41;;;;;;;1.55;1.23;;;32.50;99.90;;;;;;4189985;28;20069;-68
2021/09/22 06:16:45;;;;;;;2.13;1.35;;;32.50;99.90;;;;;;4173121;28;20564;-67
2021/09/22 06:18:57;;;;;;;1.50;1.20;;;32.60;99.90;;;;;;4175237;28;20071;-67
2021/09/22 06:21:04;;;;;;;1.70;1.20;;;32.60;99.90;;;;;;4182433;28;20078;-67
2021/09/22 06:23:08;;;;;;;3.92;1.45;;;32.60;99.90;;;;;;4191547;28;20039;-68
2021/09/22 06:25:14;;;;;;;5.30;1.30;;;32.60;99.90;;;;;;4187879;28;20053;-68
2021/09/22 06:27:18;;;;;;;1.92;1.20;;;32.70;99.90;;;;;;4186991;28;20052;-68
2021/09/22 06:29:25;;;;;;;1.73;1.25;;;32.80;99.90;;;;;;4185783;28;20060;-67
2021/09/22 06:31:30;;;;;;;2.15;1.10;;;32.70;99.90;;;;;;4189693;28;20048;-68
2021/09/22 06:33:50;;;;;;;1.70;1.30;;;32.80;99.90;;;;;;4175523;28;20060;-67
2021/09/22 06:36:00;;;;;;;1.38;1.10;;;32.80;99.90;;;;;;4171756;28;20501;-67
2021/09/22 06:38:11;;;;;;;1.70;1.10;;;32.70;99.90;;;;;;4188632;28;20044;-67
2021/09/22 06:40:23;;;;;;;1.63;0.90;;;32.80;99.90;;;;;;4167372;28;20534;-68
2021/09/22 06:42:33;;;;;;;1.00;0.90;;;32.90;99.90;;;;;;4185248;28;20493;-67
2021/09/22 06:44:38;;;;;;;0.93;0.85;;;33.00;99.90;;;;;;4186479;28;20474;-67
2021/09/22 06:46:42;;;;;;;0.88;0.70;;;33.10;99.90;;;;;;4191475;28;20122;-67
2021/09/22 06:48:47;;;;;;;1.05;0.95;;;33.10;99.90;;;;;;4191968;28;20106;-67
2021/09/22 06:50:52;;;;;;;2.15;1.25;;;33.10;99.90;;;;;;4186258;28;20053;-68
2021/09/22 06:52:57;;;;;;;1.35;0.90;;;33.20;99.70;;;;;;4191140;28;20058;-68
2021/09/22 06:55:02;;;;;;;2.00;1.08;;;33.20;99.40;;;;;;4189825;28;20080;-68
2021/09/22 06:57:06;;;;;;;1.20;0.98;;;33.10;99.30;;;;;;4186481;28;20625;-68
2021/09/22 06:59:10;;;;;;;1.42;1.13;;;33.00;99.40;;;;;;4192308;28;20135;-68
2021/09/22 07:01:15;;;;;;;2.42;0.95;;;33.10;99.70;;;;;;4180250;28;20059;-68
2021/09/22 07:03:19;;;;;;;1.27;0.90;;;33.10;99.40;;;;;;4191045;28;20044;-68
2021/09/22 07:05:25;;;;;;;1.73;0.82;;;33.20;99.00;;;;;;4190666;28;20076;-66
2021/09/22 07:07:29;;;;;;;2.92;0.90;;;33.20;99.00;;;;;;4188863;28;20048;-67
2021/09/22 07:09:33;;;;;;;1.83;0.95;;;33.20;98.90;;;;;;4188318;28;20083;-67
2021/09/22 07:11:38;;;;;;;1.23;0.95;;;33.20;98.20;;;;;;4183817;28;20118;-67
2021/09/22 07:13:43;;;;;;;0.90;0.80;;;33.20;98.20;;;;;;4187850;28;20052;-68
2021/09/22 07:15:48;;;;;;;1.13;0.85;;;33.30;98.00;;;;;;4191815;28;20526;-67
2021/09/22 07:17:53;;;;;;;0.90;0.70;;;33.30;97.60;;;;;;4191727;28;20071;-67
2021/09/22 07:19:57;;;;;;;1.13;0.75;;;33.30;98.30;;;;;;4190869;28;20379;-67
2021/09/22 07:22:03;;;;;;;1.20;0.98;;;33.30;97.80;;;;;;4183460;28;20053;-69
2021/09/22 07:24:08;;;;;;;1.35;0.93;;;33.30;97.90;;;;;;4188883;28;20040;-68
2021/09/22 07:26:13;;;;;;;0.98;0.90;;;33.40;98.50;;;;;;4195016;28;20045;-68
2021/09/22 07:28:17;;;;;;;1.95;1.10;;;33.50;98.80;;;;;;4185244;28;20122;-68
2021/09/22 07:30:23;;;;;;;1.50;1.17;;;33.50;98.50;;;;;;4185572;28;20118;-68
2021/09/22 07:32:27;;;;;;;2.95;0.98;;;33.50;97.70;;;;;;4188907;28;20057;-68
2021/09/22 07:34:32;;;;;;;1.13;0.90;;;33.50;97.30;;;;;;4190073;28;20096;-68
2021/09/22 07:36:40;;;;;;;1.30;1.15;;;33.50;96.80;;;;;;4189191;28;20052;-68
2021/09/22 07:38:45;;;;;;;1.35;1.00;;;33.50;97.20;;;;;;4188121;28;20136;-68
2021/09/22 07:40:49;;;;;;;1.25;1.00;;;33.50;97.30;;;;;;4188166;28;20056;-68
2021/09/22 07:42:56;;;;;;;1.33;0.90;;;33.60;97.30;;;;;;4184125;28;20110;-68
2021/09/22 07:45:00;;;;;;;0.80;0.80;;;33.60;97.10;;;;;;4187766;28;20044;-68
2021/09/22 07:47:04;;;;;;;1.30;1.00;;;33.60;97.00;;;;;;4191473;28;20044;-68
2021/09/22 07:49:09;;;;;;;1.80;1.10;;;33.60;97.00;;;;;;4191487;28;20481;-68
2021/09/22 07:51:13;;;;;;;1.73;1.10;;;33.60;97.10;;;;;;4183769;28;20172;-67
2021/09/22 07:53:18;;;;;;;2.05;1.00;;;33.50;96.80;;;;;;4188437;28;20086;-68
2021/09/22 07:55:23;;;;;;;1.33;0.95;;;33.50;97.40;;;;;;4186922;28;20041;-68
2021/09/22 07:57:27;;;;;;;1.08;0.90;;;33.50;97.70;;;;;;4189272;28;20131;-68
2021/09/22 07:59:32;;;;;;;1.00;0.90;;;33.50;97.80;;;;;;4188989;28;20037;-68
2021/09/22 08:01:37;;;;;;;1.88;1.00;;;33.60;97.80;;;;;;4188722;28;20503;-68
2021/09/22 08:03:42;;;;;;;1.15;1.02;;;33.60;97.70;;;;;;4173518;28;20048;-68
2021/09/22 08:05:47;;;;;;;1.65;1.10;;;33.60;97.70;;;;;;4188246;28;20068;-68
2021/09/22 08:07:52;;;;;;;2.25;1.30;;;33.50;97.60;;;;;;4186504;28;20040;-68
2021/09/22 08:09:56;;;;;;;2.33;1.50;;;33.50;97.90;;;;;;4186422;28;20044;-68
2021/09/22 08:12:00;;;;;;;2.20;1.40;;;33.40;98.10;;;;;;4175993;28;20446;-68
2021/09/22 08:14:09;;;;;;;2.17;1.40;;;33.20;98.50;;;;;;4186333;28;20139;-68
2021/09/22 08:16:14;;;;;;;3.75;1.55;;;33.20;99.00;;;;;;4187100;28;20064;-68
2021/09/22 08:18:19;;;;;;;3.45;1.75;;;33.00;99.70;;;;;;4207991;28;20052;-67
2021/09/22 08:20:24;;;;;;;4.78;2.17;;;32.90;99.90;;;;;;4188140;28;20463;-68
2021/09/22 08:22:28;;;;;;;3.63;1.83;;;32.90;99.90;;;;;;4182661;28;20521;-71
2021/09/22 08:24:33;;;;;;;4.45;1.50;;;32.90;99.70;;;;;;4186018;28;20085;-69
2021/09/22 08:26:38;;;;;;;2.05;1.48;;;32.90;99.70;;;;;;4170239;28;20111;-71
2021/09/22 08:28:42;;;;;;;2.30;1.40;;;32.80;99.60;;;;;;4189203;28;20063;-69
2021/09/22 08:30:46;;;;;;;2.58;1.10;;;32.80;99.60;;;;;;4187164;28;20078;-69
2021/09/22 08:32:51;;;;;;;1.80;1.27;;;32.90;99.70;;;;;;4168614;28;20072;-68
2021/09/22 08:34:55;;;;;;;1.63;1.15;;;32.80;99.90;;;;;;4187754;28;21171;-69
2021/09/22 08:37:00;;;;;;;3.40;1.40;;;32.80;99.90;;;;;;4186920;28;20052;-69
2021/09/22 08:39:04;;;;;;;3.67;1.20;;;32.80;99.90;;;;;;4186279;28;20102;-70
2021/09/22 08:41:09;;;;;;;3.10;1.08;;;32.80;99.90;;;;;;4187163;28;20063;-69
2021/09/22 08:43:14;;;;;;;4.13;1.55;;;32.90;99.90;;;;;;4184820;28;20506;-69
2021/09/22 08:45:19;;;;;;;1.70;1.15;;;32.90;99.90;;;;;;4186409;28;20090;-68
2021/09/22 08:47:23;;;;;;;5.15;1.20;;;32.90;99.90;;;;;;4188232;28;20040;-68
2021/09/22 08:49:27;;;;;;;1.70;1.10;;;32.90;99.90;;;;;;4173919;28;20163;-68
2021/09/22 08:51:32;;;;;;;1.73;1.10;;;32.90;99.90;;;;;;4188858;28;20087;-68
2021/09/22 08:53:37;;;;;;;1.58;0.90;;;32.90;99.90;;;;;;4186997;28;20060;-69
2021/09/22 08:55:41;;;;;;;3.00;1.00;;;32.90;99.90;;;;;;4193311;28;20130;-67
2021/09/22 08:57:46;;;;;;;1.48;1.00;;;33.00;99.60;;;;;;4190414;28;20058;-69
2021/09/22 08:59:51;;;;;;;1.33;1.00;;;33.00;99.60;;;;;;4190567;28;20083;-68
2021/09/22 09:02:12;;;;;;;3.03;1.00;;;33.00;99.50;;;;;;4192380;28;20098;-68
2021/09/22 09:04:19;;;;;;;1.73;1.02;;;33.00;99.40;;;;;;4183764;28;20044;-68
2021/09/22 09:06:34;;;;;;;2.65;1.20;;;33.00;99.40;;;;;;4158567;28;20049;-69
2021/09/22 09:08:41;;;;;;;2.17;1.08;;;32.90;98.80;;;;;;4189976;28;20044;-67
2021/09/22 09:10:54;;;;;;;1.55;1.02;;;32.90;98.60;;;;;;4190604;28;20139;-68
2021/09/22 09:12:59;;;;;;;1.25;1.00;;;32.90;98.40;;;;;;4184889;28;20049;-68
2021/09/22 09:15:11;;;;;;;2.28;1.20;;;32.90;98.30;;;;;;4201998;28;20478;-68
2021/09/22 09:17:20;;;;;;;5.60;1.40;;;32.90;98.70;;;;;;4189623;28;20132;-67
2021/09/22 09:19:25;;;;;;;6.85;1.40;;;33.00;98.70;;;;;;4189045;28;20048;-67
2021/09/22 09:21:29;;;;;;;5.03;1.35;;;33.00;98.70;;;;;;4189023;28;20040;-68
2021/09/22 09:23:34;;;;;;;2.20;1.10;;;33.00;98.80;;;;;;4185610;28;20047;-68
2021/09/22 09:25:40;;;;;;;3.42;1.05;;;32.80;99.80;;;;;;4187847;28;20059;-67
2021/09/22 09:27:44;;;;;;;1.73;1.10;;;32.70;99.90;;;;;;4191603;28;20046;-67
2021/09/22 09:29:55;;;;;;;2.35;1.10;;;32.60;99.90;;;;;;4190048;28;20612;-68
2021/09/22 09:32:15;;;;;;;2.85;1.20;;;32.60;99.90;;;;;;4190430;28;20179;-67
2021/09/22 09:34:19;;;;;;;2.08;1.10;;;32.60;99.90;;;;;;4189205;28;20057;-67
2021/09/22 09:36:33;;;;;;;1.92;1.30;;;32.50;99.90;;;;;;4169856;28;20052;-67
2021/09/22 09:38:38;;;;;;;2.70;1.25;;;32.50;99.90;;;;;;4173101;28;20602;-67
2021/09/22 09:40:42;;;;;;;2.97;1.40;;;32.40;99.90;;;;;;4185131;28;20485;-68
2021/09/22 09:42:50;;;;;;;3.50;1.08;;;32.40;99.90;;;;;;4166197;28;20434;-68
2021/09/22 09:44:57;;;;;;;1.40;1.00;;;32.40;99.90;;;;;;4166307;28;20044;-65
2021/09/22 09:47:09;;;;;;;2.42;1.20;;;32.20;99.90;;;;;;4178699;28;20051;-67
2021/09/22 09:49:19;;;;;;;1.50;1.13;;;32.20;99.90;;;;;;4193821;28;20056;-67
2021/09/22 09:51:31;;;;;;;1.73;0.98;;;32.20;99.80;;;;;;4195794;28;20052;-68
2021/09/22 09:53:36;;;;;;;2.35;1.45;;;32.00;99.20;;;;;;4192529;28;20055;-69
2021/09/22 09:55:43;;;;;;;1.80;1.30;;;32.00;99.30;;;;;;4177497;28;20576;-67
2021/09/22 09:57:48;;;;;;;1.70;1.35;;;32.00;99.30;;;;;;4190652;28;20048;-67
2021/09/22 09:59:53;;;;;;;2.65;1.50;;;32.00;99.30;;;;;;4191692;28;20132;-68
2021/09/22 10:01:58;;;;;;;1.77;1.23;;;32.00;99.50;;;;;;4160126;28;20049;-67
2021/09/22 10:04:03;;;;;;;1.77;1.40;;;32.00;99.50;;;;;;4162228;28;20050;-66
2021/09/22 10:06:09;;;;;;;3.00;1.50;;;32.00;99.70;;;;;;4194500;28;20037;-66
2021/09/22 10:08:15;;;;;;;4.40;1.92;;;32.00;99.90;;;;;;4190128;28;20063;-67
2021/09/22 10:10:19;;;;;;;2.17;1.42;;;31.90;99.90;;;;;;4191482;28;20040;-67
2021/09/22 10:12:23;;;;;;;3.08;2.00;;;31.80;99.90;;;;;;4196230;28;20052;-66
2021/09/22 10:14:31;;;;;;;2.78;1.33;;;31.80;99.90;;;;;;4189905;28;20492;-67
2021/09/22 10:16:36;;;;;;;3.63;1.83;;;31.80;99.90;;;;;;4193635;28;20076;-67
2021/09/22 10:18:41;;;;;;;6.45;1.80;;;31.80;99.90;;;;;;4195093;28;20139;-68
2021/09/22 10:20:47;;;;;;;5.68;2.90;;;31.80;99.90;;;;;;4197162;28;20036;-67
2021/09/22 10:22:54;;;;;;;3.97;2.55;;;31.70;99.90;;;;;;4197738;28;20394;-67
2021/09/22 10:24:59;;;;;;;5.97;2.55;;;31.70;99.90;;;;;;4196207;28;20079;-67
2021/09/22 10:27:04;;;;;;;5.88;2.35;;;31.70;99.90;;;;;;4197201;28;20045;-67
2021/09/22 10:29:29;;;;;;;6.35;2.97;;;31.70;99.90;;;;;;4179616;28;20155;-67
2021/09/22 10:31:35;;;;;;;6.15;2.78;;;31.70;99.90;;;;;;4196481;28;20044;-67
2021/09/22 10:33:40;;;;;;;8.13;2.80;;;31.70;99.90;;;;;;4197965;28;20490;-68
2021/09/22 10:35:45;;;;;;;6.47;2.85;;;31.60;99.90;;;;;;4161993;28;20049;-68
2021/09/22 10:37:49;;;;;;;4.47;2.47;;;31.60;99.90;;;;;;4162410;28;20045;-67
2021/09/22 10:39:54;;;;;;;5.68;2.60;;;31.60;99.90;;;;;;4161491;28;20144;-67
2021/09/22 10:41:58;;;;;;;5.97;2.67;;;31.60;99.90;;;;;;4177450;28;20094;-67
2021/09/22 10:44:04;;;;;;;7.07;2.60;;;31.60;99.90;;;;;;4178895;28;20607;-68
2021/09/22 10:46:19;;;;;;;8.65;2.85;;;31.60;99.90;;;;;;4172487;28;20090;-67
2021/09/22 10:48:24;;;;;;;9.13;3.15;;;31.60;99.90;;;;;;4178023;28;20116;-67
2021/09/22 10:50:41;;;;;;;8.07;2.85;;;31.50;99.90;;;;;;4159130;28;20606;-67
2021/09/22 10:52:47;;;;;;;7.47;2.80;;;31.40;99.90;;;;;;4176329;28;20057;-66
2021/09/22 10:55:07;;;;;;;8.48;3.08;;;31.40;99.90;;;;;;4176738;28;20128;-68
2021/09/22 10:57:15;;;;;;;12.27;5.60;;;31.40;99.90;;;;;;4178312;28;20449;-67
2021/09/22 10:59:38;;;;;;;15.73;6.70;;;31.30;99.90;;;;;;4162135;28;20544;-69
2021/09/22 11:01:42;;;;;;;10.70;5.85;;;31.40;99.90;;;;;;4177189;28;20571;-69
2021/09/22 11:03:53;;;;;;;12.18;5.30;;;31.40;99.90;;;;;;4178411;28;20403;-67
2021/09/22 11:05:58;;;;;;;9.68;4.95;;;31.30;99.90;;;;;;4178328;28;20039;-67